Kivalina Airport
PAVL : now visible

Airfield :











YOU CAN JOIN US ON...

 
LOGIN :

Register | Disclaimer

   EN    FR    IT 

 









Legend :    VFR   Marginal VFR   IFR   Intensive IFR   Very Intensive IFR
Visi :
Ceiling :
>= 8 km
>= 3000ft
5 to 8 km
1000 to 3000 ft
1500m to 5 km
500 to 1000 ft
800 to 1500m
200 to 500 ft
< 800m
< 200 ft
Symbols :   Thunderstorms  Fog  Heavy snow  Heavy precipitations  Wind > 20 kt






- Airport Elevation : 13 ft
- IATA code : KVL


PAVL - Kivalina

CURRENT METAR :
  • 210553Z AUTO 36012KT 10SM CLR 03/02 A2974 RMK AO2 SLP072 6//// T00330017 10089 20033 53006 TSNO $

EXPIRED METARs :
  • 210453Z AUTO 36015KT 10SM CLR 05/02 A2974 RMK AO2 SLP069 T00500022 TSNO $
  • 210353Z AUTO 36015KT 10SM CLR 07/03 A2973 RMK AO2 SLP067 T00670028 TSNO $

TAF N/A
PAZA FIR / North America



MET'MAP, your aeronautical weather chart ! - Copyright ORBIFLY December 2007 - Disclaimer

ORBIFLY MET'MAP TEAM :

Programming & Development : Alexandra Zaïnal
Concept & original design : Baudouin d'Aumeries
Assistance for programming : Marc-Olivier Méhu
Technical & hardware support : Manuel Goepfert

Contact : metmap@orbifly.com




SOURCES & CREDITS :

   NOAA       Earth
Advisory